createdAt,value
2023-09-06T00:00:47.654Z,6.95
2023-09-06T00:03:35.262Z,6.70
2023-09-06T00:06:02.918Z,7.15
2023-09-06T00:08:30.411Z,6.85
2023-09-06T00:11:00.189Z,7.32
2023-09-06T00:13:27.305Z,7.65
2023-09-06T00:15:57.233Z,7.00
2023-09-06T00:18:27.201Z,6.38
2023-09-06T00:20:55.358Z,6.10
2023-09-06T00:23:22.484Z,6.40
2023-09-06T00:25:49.936Z,6.30
2023-09-06T00:28:21.894Z,6.40
2023-09-06T00:30:49.428Z,6.40
2023-09-06T00:33:16.722Z,6.63
2023-09-06T00:35:44.198Z,6.03
2023-09-06T00:38:13.606Z,7.00
2023-09-06T00:40:41.179Z,6.20
2023-09-06T00:43:09.540Z,6.35
2023-09-06T00:45:39.841Z,6.20
2023-09-06T00:48:10.509Z,6.57
2023-09-06T00:50:38.754Z,6.93
2023-09-06T00:53:10.182Z,6.28
2023-09-06T00:55:39.935Z,5.95
2023-09-06T00:58:07.819Z,6.53
2023-09-06T01:00:35.713Z,5.53
2023-09-06T01:03:03.072Z,5.90
2023-09-06T01:05:36.903Z,6.70
2023-09-06T01:10:35.528Z,6.07
2023-09-06T01:13:02.820Z,6.32
2023-09-06T01:15:33.386Z,7.97
2023-09-06T01:18:03.179Z,6.55
2023-09-06T01:20:53.163Z,6.85
2023-09-06T01:23:53.127Z,6.80
2023-09-06T01:26:23.851Z,6.30
2023-09-06T01:28:51.473Z,5.80
2023-09-06T01:31:19.050Z,5.97
2023-09-06T01:33:50.697Z,6.43
2023-09-06T01:36:18.300Z,5.70
2023-09-06T01:38:45.398Z,5.35
2023-09-06T01:41:13.445Z,5.88
2023-09-06T01:43:40.626Z,5.60
2023-09-06T01:46:08.261Z,6.25
2023-09-06T01:48:35.599Z,6.00
2023-09-06T01:51:03.115Z,5.70
2023-09-06T01:53:30.392Z,6.10
2023-09-06T01:55:59.999Z,5.85
2023-09-06T01:58:29.776Z,5.68
2023-09-06T02:00:57.414Z,5.72
2023-09-06T02:03:27.256Z,5.97
2023-09-06T02:05:54.816Z,5.18
2023-09-06T02:08:21.873Z,5.80
2023-09-06T02:10:51.800Z,5.80
2023-09-06T02:13:18.991Z,5.80
2023-09-06T02:15:48.777Z,5.80
2023-09-06T02:18:20.214Z,6.55
2023-09-06T02:20:47.928Z,6.45
2023-09-06T02:23:15.026Z,7.25
2023-09-06T02:25:42.427Z,7.13
2023-09-06T02:28:11.819Z,7.30
2023-09-06T02:30:39.509Z,8.63
2023-09-06T02:33:06.987Z,7.60
2023-09-06T02:35:34.482Z,7.43
2023-09-06T02:38:03.842Z,8.60
2023-09-06T02:40:33.412Z,7.88
2023-09-06T02:43:00.544Z,8.18
2023-09-06T02:45:28.024Z,8.30
2023-09-06T02:47:57.466Z,7.85
2023-09-06T02:50:27.121Z,8.23
2023-09-06T02:52:55.061Z,7.97
2023-09-06T02:55:24.986Z,8.23
2023-09-06T02:57:52.130Z,8.15
2023-09-06T03:00:21.921Z,8.82
2023-09-06T03:02:49.043Z,9.20
2023-09-06T03:05:21.452Z,9.95
2023-09-06T03:07:51.406Z,9.73
2023-09-06T03:10:20.260Z,8.70
2023-09-06T03:13:02.406Z,8.40
2023-09-06T03:15:32.989Z,9.38
2023-09-06T03:18:00.421Z,10.65
2023-09-06T03:20:28.921Z,12.07
2023-09-06T03:22:58.955Z,12.57
2023-09-06T03:25:26.656Z,12.23
2023-09-06T03:27:58.750Z,11.57
2023-09-06T03:30:26.198Z,12.30
2023-09-06T03:32:53.308Z,12.27
2023-09-06T03:35:22.922Z,13.50
2023-09-06T03:37:50.398Z,13.05
2023-09-06T03:40:23.013Z,17.58
2023-09-06T03:42:50.123Z,13.35
2023-09-06T03:45:17.543Z,13.98
2023-09-06T03:47:44.762Z,12.80
2023-09-06T03:50:12.259Z,12.65
2023-09-06T03:52:39.445Z,11.60
2023-09-06T03:55:07.262Z,11.13
2023-09-06T03:57:34.316Z,10.20
2023-09-06T04:00:04.901Z,9.20
2023-09-06T04:02:34.381Z,9.07
2023-09-06T04:05:01.932Z,8.95
2023-09-06T04:07:31.436Z,8.60
2023-09-06T04:10:01.163Z,8.98
2023-09-06T04:12:28.326Z,8.27
2023-09-06T04:14:55.831Z,8.68
2023-09-06T04:17:25.216Z,8.30
2023-09-06T04:19:52.695Z,8.45
2023-09-06T04:22:19.773Z,8.77
2023-09-06T04:24:47.209Z,9.07
2023-09-06T04:27:16.818Z,8.95
2023-09-06T04:29:44.169Z,8.35
2023-09-06T04:32:11.308Z,9.25
2023-09-06T04:34:40.992Z,9.45
2023-09-06T04:37:08.067Z,8.85
2023-09-06T04:39:35.390Z,8.40
2023-09-06T04:42:02.434Z,7.75
2023-09-06T04:44:32.054Z,8.85
2023-09-06T04:46:59.188Z,6.95
2023-09-06T04:49:29.064Z,7.80
2023-09-06T04:51:58.337Z,6.78
2023-09-06T04:54:30.435Z,6.18
2023-09-06T04:56:57.630Z,5.97
2023-09-06T04:59:27.541Z,6.57
2023-09-06T05:01:54.596Z,6.15
2023-09-06T05:04:24.220Z,5.40
2023-09-06T05:06:53.540Z,5.82
2023-09-06T05:09:23.186Z,4.90
2023-09-06T05:11:50.311Z,4.57
2023-09-06T05:14:20.202Z,4.65
2023-09-06T05:16:47.469Z,4.40
2023-09-06T05:19:14.945Z,5.30
2023-09-06T05:21:42.023Z,7.63
2023-09-06T05:24:09.470Z,5.93
2023-09-06T05:26:39.184Z,4.75
2023-09-06T05:29:06.590Z,9.90
2023-09-06T05:31:34.047Z,4.40
2023-09-06T05:34:01.537Z,4.32
2023-09-06T05:36:33.483Z,4.30
2023-09-06T05:41:27.894Z,7.82
2023-09-06T05:43:57.523Z,4.13
2023-09-06T05:46:33.568Z,4.60
2023-09-06T05:49:01.777Z,4.68
2023-09-06T05:51:28.973Z,5.20
2023-09-06T05:53:56.349Z,3.90
2023-09-06T05:56:23.423Z,4.25
2023-09-06T05:58:55.436Z,4.65
2023-09-06T06:03:52.457Z,4.60
2023-09-06T06:06:19.559Z,9.43
2023-09-06T06:08:47.161Z,4.50
2023-09-06T06:11:14.269Z,4.72
2023-09-06T06:13:43.477Z,4.13
2023-09-06T06:16:11.954Z,4.63
2023-09-06T06:18:41.742Z,5.00
2023-09-06T06:21:08.972Z,4.88
2023-09-06T06:23:36.364Z,4.95
2023-09-06T06:26:05.711Z,4.85
2023-09-06T06:28:33.340Z,5.13
2023-09-06T06:31:00.977Z,5.32
2023-09-06T06:33:30.598Z,4.70
2023-09-06T06:35:57.751Z,11.02
2023-09-06T06:38:28.162Z,12.95
2023-09-06T06:40:55.444Z,5.47
2023-09-06T06:43:22.842Z,5.10
2023-09-06T06:45:55.253Z,5.32
2023-09-06T06:48:23.090Z,4.75
2023-09-06T06:50:53.270Z,5.38
2023-09-06T06:53:22.989Z,4.40
2023-09-06T06:55:53.386Z,4.00
2023-09-06T06:58:20.864Z,4.28
2023-09-06T07:00:48.036Z,3.75
2023-09-06T07:03:15.605Z,4.55
2023-09-06T07:05:43.372Z,4.10
2023-09-06T07:08:15.694Z,4.53
2023-09-06T07:10:42.861Z,5.22
2023-09-06T07:13:15.084Z,4.80
2023-09-06T07:15:43.519Z,5.10
2023-09-06T07:18:13.346Z,3.83
2023-09-06T07:20:40.555Z,4.10
2023-09-06T07:23:08.157Z,4.20
2023-09-06T07:25:37.506Z,4.93
2023-09-06T07:28:05.112Z,5.88
2023-09-06T07:30:35.300Z,4.32
2023-09-06T07:33:02.778Z,4.03
2023-09-06T07:35:33.951Z,4.18
2023-09-06T07:38:01.961Z,4.75
2023-09-06T07:40:29.103Z,3.97
2023-09-06T07:42:58.708Z,3.30
2023-09-06T07:45:25.799Z,3.80
2023-09-06T07:47:55.832Z,3.60
2023-09-06T07:50:23.187Z,6.32
2023-09-06T07:52:50.668Z,6.20
2023-09-06T07:55:17.791Z,4.50
2023-09-06T07:57:45.180Z,3.90
2023-09-06T08:00:15.073Z,3.30
2023-09-06T08:02:44.753Z,3.17
2023-09-06T08:05:16.435Z,3.28
2023-09-06T08:07:46.075Z,3.53
2023-09-06T08:10:17.874Z,3.28
2023-09-06T08:12:45.341Z,3.15
2023-09-06T08:15:14.855Z,3.80
2023-09-06T08:20:10.277Z,3.20
2023-09-06T08:22:44.794Z,3.25
2023-09-06T08:25:15.498Z,3.75
2023-09-06T08:27:43.097Z,3.50
2023-09-06T08:30:15.599Z,2.95
2023-09-06T08:32:45.304Z,3.70
2023-09-06T08:35:12.829Z,2.90
2023-09-06T08:37:40.961Z,3.20
2023-09-06T08:40:10.848Z,3.70
2023-09-06T08:42:40.024Z,3.47
2023-09-06T08:45:08.195Z,3.03
2023-09-06T08:47:38.258Z,4.65
2023-09-06T08:52:34.591Z,7.63
2023-09-06T08:55:02.192Z,4.20
2023-09-06T08:57:29.832Z,3.67
2023-09-06T08:59:58.019Z,5.38
2023-09-06T09:02:25.445Z,3.75
2023-09-06T09:05:02.961Z,4.20
2023-09-06T09:07:40.577Z,4.00
2023-09-06T09:10:09.848Z,3.53
2023-09-06T09:12:39.161Z,3.67
2023-09-06T09:15:22.861Z,4.13
2023-09-06T09:18:00.613Z,3.85
2023-09-06T09:20:31.970Z,5.05
2023-09-06T09:23:03.727Z,4.32
2023-09-06T09:25:31.500Z,3.80
2023-09-06T09:27:59.883Z,3.80
2023-09-06T09:30:29.328Z,3.00
2023-09-06T09:33:04.298Z,3.78
2023-09-06T09:35:33.367Z,3.00
2023-09-06T09:38:02.627Z,3.40
2023-09-06T09:40:41.711Z,3.33
2023-09-06T09:43:21.232Z,4.38
2023-09-06T09:45:51.121Z,10.48
2023-09-06T09:48:19.724Z,3.80
2023-09-06T09:50:53.081Z,3.47
2023-09-06T09:53:24.662Z,4.70
2023-09-06T09:55:56.680Z,3.50
2023-09-06T09:58:25.692Z,3.72
2023-09-06T10:00:54.190Z,4.00
2023-09-06T10:03:23.566Z,3.53
2023-09-06T10:05:56.650Z,3.28
2023-09-06T10:08:32.165Z,3.33
2023-09-06T10:10:59.401Z,3.90
2023-09-06T10:13:33.326Z,3.30
2023-09-06T10:16:02.200Z,3.40
2023-09-06T10:18:30.260Z,3.45
2023-09-06T10:20:57.888Z,4.47
2023-09-06T10:23:26.602Z,4.40
2023-09-06T10:25:56.894Z,4.32
2023-09-06T10:28:27.178Z,3.53
2023-09-06T10:30:58.130Z,3.15
2023-09-06T10:33:31.644Z,3.95
2023-09-06T10:35:59.948Z,4.57
2023-09-06T10:38:27.624Z,3.92
2023-09-06T10:40:54.883Z,3.88
2023-09-06T10:43:53.495Z,3.88
2023-09-06T10:46:20.716Z,3.83
2023-09-06T10:49:16.185Z,3.50
2023-09-06T10:51:56.028Z,3.92
2023-09-06T10:54:40.705Z,3.93
2023-09-06T10:57:13.517Z,4.22
2023-09-06T10:59:44.844Z,6.05
2023-09-06T11:02:19.742Z,4.18
2023-09-06T11:05:03.430Z,3.83
2023-09-06T11:10:25.099Z,4.93
2023-09-06T11:12:55.956Z,4.85
2023-09-06T11:15:26.037Z,4.53
2023-09-06T11:18:00.980Z,4.40
2023-09-06T11:20:28.634Z,5.22
2023-09-06T11:22:57.715Z,4.65
2023-09-06T11:25:28.903Z,4.60
2023-09-06T11:27:58.958Z,5.10
2023-09-06T11:30:27.059Z,4.30
2023-09-06T11:32:57.412Z,4.13
2023-09-06T11:35:34.514Z,5.15
2023-09-06T11:38:02.386Z,16.48
2023-09-06T11:40:33.511Z,5.30
2023-09-06T11:43:05.658Z,5.20
2023-09-06T11:45:33.688Z,4.80
2023-09-06T11:48:06.114Z,5.88
2023-09-06T11:50:34.175Z,5.80
2023-09-06T11:53:01.758Z,7.13
2023-09-06T11:55:32.314Z,5.18
2023-09-06T11:57:59.489Z,5.82
2023-09-06T12:00:35.301Z,4.47
2023-09-06T12:03:02.478Z,7.07
2023-09-06T12:05:46.247Z,4.40
2023-09-06T12:08:17.522Z,4.82
2023-09-06T12:10:45.495Z,4.10
2023-09-06T12:13:14.804Z,5.00
2023-09-06T12:15:42.247Z,4.47
2023-09-06T12:18:09.516Z,4.32
2023-09-06T12:20:39.165Z,5.13
2023-09-06T12:23:06.368Z,5.35
2023-09-06T12:25:36.264Z,5.65
2023-09-06T12:28:03.566Z,4.63
2023-09-06T12:30:31.147Z,5.40
2023-09-06T12:32:58.657Z,5.70
2023-09-06T12:35:26.301Z,5.35
2023-09-06T12:37:53.835Z,5.43
2023-09-06T12:40:21.444Z,4.75
2023-09-06T12:42:48.933Z,4.75
2023-09-06T12:45:25.586Z,4.68
2023-09-06T12:47:52.710Z,6.28
2023-09-06T12:50:22.833Z,5.63
2023-09-06T12:52:50.011Z,4.80
2023-09-06T12:55:22.269Z,4.57
2023-09-06T12:57:51.769Z,5.25
2023-09-06T13:00:21.523Z,4.88
2023-09-06T13:02:48.750Z,5.03
2023-09-06T13:05:16.401Z,4.40
2023-09-06T13:07:46.166Z,4.65
2023-09-06T13:10:16.540Z,6.32
2023-09-06T13:12:45.971Z,6.35
2023-09-06T13:15:13.425Z,5.45
2023-09-06T13:17:40.755Z,5.13
2023-09-06T13:20:13.802Z,5.45
2023-09-06T13:25:11.697Z,4.97
2023-09-06T13:27:38.888Z,5.15
2023-09-06T13:30:07.123Z,5.22
2023-09-06T13:32:36.714Z,5.10
2023-09-06T13:35:04.412Z,4.85
2023-09-06T13:37:34.093Z,4.82
2023-09-06T13:40:01.525Z,4.80
2023-09-06T13:42:28.967Z,5.55
2023-09-06T13:44:56.615Z,4.50
2023-09-06T13:47:26.178Z,5.15
2023-09-06T13:49:53.706Z,4.78
2023-09-06T13:52:20.880Z,5.20
2023-09-06T13:54:48.302Z,4.38
2023-09-06T13:57:15.388Z,4.68
2023-09-06T13:59:42.806Z,4.28
2023-09-06T14:02:10.091Z,4.22
2023-09-06T14:04:43.189Z,4.28
2023-09-06T14:07:10.369Z,3.97
2023-09-06T14:09:40.091Z,4.18
2023-09-06T14:12:07.728Z,4.63
2023-09-06T14:14:35.132Z,4.88
2023-09-06T14:17:02.328Z,3.90
2023-09-06T14:19:32.477Z,4.05
2023-09-06T14:22:01.870Z,3.80
2023-09-06T14:24:29.323Z,4.18
2023-09-06T14:26:56.457Z,4.00
2023-09-06T14:29:26.049Z,4.68
2023-09-06T14:31:55.787Z,4.25
2023-09-06T14:34:25.821Z,4.97
2023-09-06T14:36:53.083Z,5.68
2023-09-06T14:39:20.587Z,7.85
2023-09-06T14:41:47.784Z,4.93
2023-09-06T14:44:17.778Z,4.35
2023-09-06T14:46:44.949Z,5.35
2023-09-06T14:49:12.379Z,4.65
2023-09-06T14:51:39.540Z,5.53
2023-09-06T14:54:07.888Z,4.32
2023-09-06T14:56:37.993Z,4.40
2023-09-06T14:59:08.163Z,3.92
2023-09-06T15:01:37.586Z,3.97
2023-09-06T15:04:05.494Z,4.38
2023-09-06T15:06:48.016Z,3.88
2023-09-06T15:09:20.279Z,4.72
2023-09-06T15:11:47.662Z,4.80
2023-09-06T15:14:17.629Z,4.63
2023-09-06T15:16:47.199Z,4.60
2023-09-06T15:19:14.907Z,4.82
2023-09-06T15:21:44.625Z,3.95
2023-09-06T15:24:12.362Z,5.22
2023-09-06T15:26:40.173Z,4.40
2023-09-06T15:29:07.676Z,4.47
2023-09-06T15:31:37.022Z,5.28
2023-09-06T15:34:04.523Z,4.30
2023-09-06T15:36:32.033Z,4.32
2023-09-06T15:39:01.706Z,4.40
2023-09-06T15:41:31.493Z,4.15
2023-09-06T15:43:59.774Z,4.80
2023-09-06T15:46:27.029Z,4.60
2023-09-06T15:48:57.173Z,5.93
2023-09-06T15:51:24.706Z,4.70
2023-09-06T15:53:52.282Z,5.40
2023-09-06T15:56:21.687Z,4.50
2023-09-06T15:58:49.122Z,4.85
2023-09-06T16:01:16.312Z,4.05
2023-09-06T16:03:43.998Z,3.97
2023-09-06T16:06:13.749Z,4.10
2023-09-06T16:08:43.680Z,4.47
2023-09-06T16:11:13.001Z,4.53
2023-09-06T16:13:42.611Z,5.60
2023-09-06T16:16:09.785Z,4.25
2023-09-06T16:18:39.768Z,4.47
2023-09-06T16:21:07.010Z,5.03
2023-09-06T16:23:34.970Z,4.65
2023-09-06T16:26:09.788Z,4.80
2023-09-06T16:28:37.486Z,4.47
2023-09-06T16:31:06.381Z,4.50
2023-09-06T16:33:34.046Z,4.28
2023-09-06T16:36:01.377Z,4.70
2023-09-06T16:38:32.491Z,3.97
2023-09-06T16:41:05.105Z,4.22
2023-09-06T16:43:32.557Z,4.70
2023-09-06T16:45:59.825Z,5.78
2023-09-06T16:48:30.257Z,5.13
2023-09-06T16:50:57.692Z,4.70
2023-09-06T16:53:25.124Z,5.32
2023-09-06T16:55:52.337Z,4.68
2023-09-06T16:58:20.425Z,4.63
2023-09-06T17:00:51.971Z,4.85
2023-09-06T17:03:19.512Z,5.03
2023-09-06T17:05:47.047Z,6.45
2023-09-06T17:08:23.378Z,5.65
2023-09-06T17:10:50.553Z,5.35
2023-09-06T17:13:22.711Z,5.00
2023-09-06T17:15:55.028Z,4.50
2023-09-06T17:18:24.756Z,4.72
2023-09-06T17:20:51.846Z,4.90
2023-09-06T17:23:19.203Z,4.72
2023-09-06T17:25:48.808Z,5.05
2023-09-06T17:28:18.841Z,5.05
2023-09-06T17:30:45.999Z,4.57
2023-09-06T17:33:17.073Z,5.43
2023-09-06T17:35:49.968Z,5.38
2023-09-06T17:38:18.653Z,5.20
2023-09-06T17:40:49.977Z,6.43
2023-09-06T17:43:17.660Z,6.68
2023-09-06T17:45:48.282Z,6.35
2023-09-06T17:48:18.457Z,8.25
2023-09-06T17:50:52.900Z,7.72
2023-09-06T17:53:24.186Z,6.65
2023-09-06T17:56:00.313Z,6.57
2023-09-06T17:58:28.714Z,6.68
2023-09-06T18:00:56.049Z,7.53
2023-09-06T18:03:23.666Z,9.48
2023-09-06T18:05:51.532Z,8.25
2023-09-06T18:08:19.531Z,6.82
2023-09-06T18:10:49.188Z,7.00
2023-09-06T18:13:16.887Z,9.43
2023-09-06T18:15:44.334Z,8.18
2023-09-06T18:18:12.508Z,9.77
2023-09-06T18:20:44.241Z,11.05
2023-09-06T18:23:14.402Z,7.72
2023-09-06T18:25:42.069Z,7.03
2023-09-06T18:28:10.002Z,8.13
2023-09-06T18:30:43.826Z,6.70
2023-09-06T18:33:16.013Z,6.40
2023-09-06T18:35:45.568Z,7.40
2023-09-06T18:38:17.739Z,6.90
2023-09-06T18:40:52.277Z,7.65
2023-09-06T18:43:21.207Z,7.18
2023-09-06T18:45:54.637Z,7.20
2023-09-06T18:48:24.519Z,7.82
2023-09-06T18:50:51.989Z,7.28
2023-09-06T18:53:21.958Z,6.93
2023-09-06T18:55:49.132Z,8.07
2023-09-06T18:58:16.963Z,8.43
2023-09-06T19:00:45.143Z,8.23
2023-09-06T19:03:13.056Z,7.38
2023-09-06T19:05:44.660Z,7.55
2023-09-06T19:08:14.564Z,9.02
2023-09-06T19:10:45.046Z,8.52
2023-09-06T19:13:14.815Z,9.35
2023-09-06T19:15:47.265Z,8.82
2023-09-06T19:18:15.745Z,9.65
2023-09-06T19:20:42.905Z,8.50
2023-09-06T19:23:10.411Z,8.55
2023-09-06T19:25:40.098Z,8.25
2023-09-06T19:28:07.627Z,10.20
2023-09-06T19:30:34.862Z,9.13
2023-09-06T19:33:02.596Z,8.32
2023-09-06T19:35:32.121Z,8.57
2023-09-06T19:38:01.868Z,10.23
2023-09-06T19:40:33.879Z,9.60
2023-09-06T19:43:01.290Z,9.18
2023-09-06T19:45:28.479Z,9.93
2023-09-06T19:47:55.933Z,9.07
2023-09-06T19:50:23.208Z,9.40
2023-09-06T19:52:50.666Z,8.75
2023-09-06T19:55:17.960Z,9.05
2023-09-06T19:57:47.634Z,11.75
2023-09-06T20:00:15.011Z,11.40
2023-09-06T20:02:42.701Z,11.02
2023-09-06T20:05:12.886Z,13.88
2023-09-06T20:07:42.586Z,13.30
2023-09-06T20:10:09.841Z,12.70
2023-09-06T20:12:39.431Z,13.25
2023-09-06T20:15:09.605Z,12.60
2023-09-06T20:17:37.108Z,10.45
2023-09-06T20:20:04.733Z,11.90
2023-09-06T20:22:32.089Z,10.93
2023-09-06T20:24:59.137Z,10.00
2023-09-06T20:27:26.564Z,10.98
2023-09-06T20:29:56.267Z,11.15
2023-09-06T20:32:23.643Z,11.27
2023-09-06T20:34:50.789Z,10.70
2023-09-06T20:37:18.230Z,11.07
2023-09-06T20:39:45.332Z,10.02
2023-09-06T20:42:15.225Z,10.32
2023-09-06T20:44:42.354Z,10.48
2023-09-06T20:47:09.803Z,9.95
2023-09-06T20:49:36.864Z,9.75
2023-09-06T20:52:04.558Z,11.18
2023-09-06T20:54:31.680Z,10.23
2023-09-06T20:56:59.121Z,11.27
2023-09-06T20:59:28.455Z,13.13
2023-09-06T21:01:55.941Z,13.93
2023-09-06T21:04:25.649Z,14.77
2023-09-06T21:06:53.114Z,14.38
2023-09-06T21:09:20.579Z,14.23
2023-09-06T21:11:47.980Z,15.05
2023-09-06T21:14:16.654Z,14.15
2023-09-06T21:16:46.302Z,15.50
2023-09-06T21:19:15.915Z,13.93
2023-09-06T21:21:43.360Z,13.43
2023-09-06T21:24:10.631Z,13.07
2023-09-06T21:26:39.505Z,12.48
2023-09-06T21:29:18.050Z,13.40
2023-09-06T21:31:52.218Z,14.15
2023-09-06T21:34:24.166Z,13.07
2023-09-06T21:36:51.780Z,13.13
2023-09-06T21:39:19.064Z,12.00
2023-09-06T21:41:48.912Z,13.30
2023-09-06T21:44:15.990Z,12.43
2023-09-06T21:46:45.706Z,12.75
2023-09-06T21:49:15.311Z,13.07
2023-09-06T21:51:42.740Z,13.00
2023-09-06T21:54:09.825Z,12.65
2023-09-06T21:56:37.274Z,15.23
2023-09-06T21:59:04.513Z,19.95
2023-09-06T22:01:32.043Z,26.23
2023-09-06T22:03:59.228Z,23.38
2023-09-06T22:06:26.734Z,25.60
2023-09-06T22:08:54.442Z,27.23
2023-09-06T22:11:24.367Z,29.67
2023-09-06T22:13:51.441Z,28.25
2023-09-06T22:16:18.896Z,29.42
2023-09-06T22:18:46.603Z,30.92
2023-09-06T22:21:16.549Z,31.55
2023-09-06T22:23:46.130Z,30.85
2023-09-06T22:26:13.495Z,28.95
2023-09-06T22:28:40.602Z,30.50
2023-09-06T22:31:10.567Z,28.88
2023-09-06T22:33:39.931Z,25.70
2023-09-06T22:36:07.322Z,22.77
2023-09-06T22:38:36.647Z,25.23
2023-09-06T22:41:04.062Z,24.30
2023-09-06T22:43:31.182Z,32.03
2023-09-06T22:45:58.651Z,27.13
2023-09-06T22:48:26.492Z,24.52
2023-09-06T22:50:57.625Z,24.05
2023-09-06T22:53:27.203Z,22.15
2023-09-06T22:55:54.553Z,22.10
2023-09-06T22:58:21.758Z,22.52
2023-09-06T23:00:49.330Z,23.00
2023-09-06T23:03:16.481Z,22.77
2023-09-06T23:05:44.798Z,20.88
2023-09-06T23:08:12.011Z,20.40
2023-09-06T23:10:39.460Z,19.63
2023-09-06T23:13:09.165Z,17.90
2023-09-06T23:15:38.584Z,19.30
2023-09-06T23:18:05.685Z,19.55
2023-09-06T23:20:33.121Z,19.98
2023-09-06T23:23:00.240Z,18.75
2023-09-06T23:25:29.166Z,18.35
2023-09-06T23:27:56.384Z,18.40
2023-09-06T23:30:25.990Z,17.75
2023-09-06T23:32:55.281Z,20.38
2023-09-06T23:35:23.440Z,23.63
2023-09-06T23:37:50.555Z,20.67
2023-09-06T23:40:18.113Z,22.35
2023-09-06T23:42:48.431Z,21.90
2023-09-06T23:45:19.773Z,22.38
2023-09-06T23:47:59.088Z,23.98
2023-09-06T23:50:26.621Z,23.98
2023-09-06T23:52:53.931Z,22.00
2023-09-06T23:55:21.632Z,21.73
2023-09-06T23:57:50.018Z,22.10
